createdAt,value
2023-08-09T00:01:43.781Z,36.96
2023-08-09T00:06:50.310Z,37.09
2023-08-09T00:11:53.357Z,37.21
2023-08-09T00:16:56.619Z,37.13
2023-08-09T00:21:59.710Z,36.66
2023-08-09T00:27:03.693Z,36.65
2023-08-09T00:32:07.285Z,36.08
2023-08-09T00:37:10.338Z,36.35
2023-08-09T00:42:14.154Z,36.55
2023-08-09T00:47:18.000Z,36.73
2023-08-09T00:52:21.398Z,37.58
2023-08-09T00:57:24.745Z,37.43
2023-08-09T01:02:28.080Z,37.57
2023-08-09T01:07:49.394Z,38.39
2023-08-09T01:13:04.930Z,38.58
2023-08-09T01:18:12.894Z,38.99
2023-08-09T01:23:19.528Z,39.39
2023-08-09T01:28:22.728Z,39.50
2023-08-09T01:33:27.461Z,40.39
2023-08-09T01:38:43.521Z,40.83
2023-08-09T01:43:48.301Z,41.46
2023-08-09T01:48:51.312Z,41.46
2023-08-09T01:53:54.407Z,41.45
2023-08-09T01:58:57.612Z,41.15
2023-08-09T02:04:00.723Z,41.95
2023-08-09T02:09:03.897Z,42.18
2023-08-09T02:14:09.255Z,42.84
2023-08-09T02:19:12.774Z,43.40
2023-08-09T02:24:16.916Z,45.03
2023-08-09T02:29:20.069Z,46.35
2023-08-09T02:34:24.512Z,47.20
2023-08-09T02:39:27.908Z,47.56
2023-08-09T02:44:34.020Z,48.79
2023-08-09T02:49:37.117Z,47.99
2023-08-09T02:54:42.911Z,47.78
2023-08-09T02:59:48.439Z,47.21
2023-08-09T03:04:52.121Z,46.63
2023-08-09T03:09:55.214Z,45.67
2023-08-09T03:14:58.305Z,44.75
2023-08-09T03:20:03.077Z,43.77
2023-08-09T03:25:08.434Z,42.55
2023-08-09T03:30:12.905Z,41.46
2023-08-09T03:35:16.507Z,41.17
2023-08-09T03:40:20.214Z,40.72
2023-08-09T03:45:23.976Z,40.32
2023-08-09T03:50:28.230Z,39.35
2023-08-09T03:55:32.902Z,38.40
2023-08-09T04:00:36.092Z,36.31
2023-08-09T04:05:39.550Z,33.63
2023-08-09T04:10:42.928Z,32.99
2023-08-09T04:15:46.034Z,32.09
2023-08-09T04:20:49.801Z,30.66
2023-08-09T04:25:52.971Z,29.13
2023-08-09T04:30:56.077Z,27.72
2023-08-09T04:35:59.238Z,27.12
2023-08-09T04:41:02.288Z,26.80
2023-08-09T04:46:05.553Z,26.32
2023-08-09T04:51:10.301Z,26.88
2023-08-09T04:56:13.474Z,25.66
2023-08-09T05:01:16.682Z,25.05
2023-08-09T05:06:19.874Z,24.15
2023-08-09T05:11:25.899Z,23.87
2023-08-09T05:16:29.032Z,22.69
2023-08-09T05:21:32.134Z,22.81
2023-08-09T05:26:35.215Z,22.47
2023-08-09T05:31:39.082Z,21.95
2023-08-09T05:36:42.170Z,21.90
2023-08-09T05:41:45.201Z,21.71
2023-08-09T05:46:48.236Z,22.40
2023-08-09T05:51:51.367Z,21.75
2023-08-09T05:56:54.468Z,21.59
2023-08-09T06:01:58.131Z,20.89
2023-08-09T06:07:01.747Z,20.59
2023-08-09T06:12:06.193Z,20.22
2023-08-09T06:17:09.313Z,20.76
2023-08-09T06:22:12.454Z,20.60
2023-08-09T06:27:15.444Z,20.45
2023-08-09T06:32:19.369Z,20.11
2023-08-09T06:37:23.548Z,20.58
2023-08-09T06:42:26.667Z,20.54
2023-08-09T06:47:35.498Z,20.28
2023-08-09T06:52:39.050Z,20.90
2023-08-09T06:57:42.272Z,19.88
2023-08-09T07:02:49.737Z,19.91
2023-08-09T07:07:53.463Z,19.12
2023-08-09T07:13:02.846Z,18.68
2023-08-09T07:18:05.955Z,19.13
2023-08-09T07:23:09.081Z,19.22
2023-08-09T07:28:12.873Z,18.51
2023-08-09T07:33:16.266Z,18.40
2023-08-09T07:38:19.306Z,18.05
2023-08-09T07:43:22.306Z,18.15
2023-08-09T07:48:25.385Z,17.75
2023-08-09T07:53:28.579Z,18.51
2023-08-09T07:58:31.718Z,18.56
2023-08-09T08:03:35.491Z,18.88
2023-08-09T08:08:38.647Z,19.19
2023-08-09T08:13:41.745Z,18.91
2023-08-09T08:18:44.880Z,19.49
2023-08-09T08:23:47.948Z,18.81
2023-08-09T08:28:50.976Z,19.20
2023-08-09T08:33:56.180Z,20.25
2023-08-09T08:38:59.873Z,21.06
2023-08-09T08:44:02.984Z,21.38
2023-08-09T08:49:06.990Z,20.91
2023-08-09T08:54:11.028Z,21.28
2023-08-09T08:59:14.262Z,21.94
2023-08-09T09:04:17.352Z,21.71
2023-08-09T09:09:22.013Z,21.88
2023-08-09T09:14:25.115Z,20.86
2023-08-09T09:19:28.171Z,20.67
2023-08-09T09:24:36.754Z,20.38
2023-08-09T09:29:43.346Z,20.47
2023-08-09T09:34:46.403Z,20.43
2023-08-09T09:39:50.459Z,20.48
2023-08-09T09:44:54.037Z,19.85
2023-08-09T09:49:58.383Z,20.21
2023-08-09T09:55:02.837Z,19.70
2023-08-09T10:00:17.772Z,20.02
2023-08-09T10:05:28.001Z,20.63
2023-08-09T10:10:33.656Z,20.68
2023-08-09T10:15:44.498Z,20.43
2023-08-09T10:20:53.689Z,20.25
2023-08-09T10:25:58.155Z,20.23
2023-08-09T10:31:01.351Z,20.57
2023-08-09T10:36:05.056Z,20.64
2023-08-09T10:41:13.385Z,20.88
2023-08-09T10:46:21.780Z,20.20
2023-08-09T10:51:25.616Z,20.18
2023-08-09T10:56:36.339Z,20.41
2023-08-09T11:01:40.509Z,20.67
2023-08-09T11:06:45.930Z,20.60
2023-08-09T11:11:50.708Z,20.65
2023-08-09T11:17:02.134Z,20.20
2023-08-09T11:22:06.486Z,20.34
2023-08-09T11:27:12.816Z,20.44
2023-08-09T11:32:15.960Z,24.33
2023-08-09T11:37:19.024Z,27.99
2023-08-09T11:42:22.625Z,29.61
2023-08-09T11:47:27.675Z,31.10
2023-08-09T11:52:31.243Z,31.96
2023-08-09T11:57:34.375Z,33.06
2023-08-09T12:02:40.484Z,34.19
2023-08-09T12:07:47.844Z,34.99
2023-08-09T12:12:52.363Z,35.03
2023-08-09T12:17:55.733Z,34.62
2023-08-09T12:22:59.401Z,35.17
2023-08-09T12:28:02.605Z,34.61
2023-08-09T12:33:10.093Z,35.23
2023-08-09T12:38:13.920Z,35.37
2023-08-09T12:43:16.918Z,35.15
2023-08-09T12:48:20.037Z,36.47
2023-08-09T12:53:23.667Z,37.29
2023-08-09T12:58:28.208Z,38.11
2023-08-09T13:03:31.348Z,38.47
2023-08-09T13:08:34.481Z,39.33
2023-08-09T13:13:38.702Z,39.78
2023-08-09T13:18:41.764Z,40.71
2023-08-09T13:23:45.496Z,40.81
2023-08-09T13:28:48.594Z,41.04
2023-08-09T13:33:51.723Z,41.55
2023-08-09T13:38:54.886Z,42.00
2023-08-09T13:43:57.916Z,42.04
2023-08-09T13:49:02.638Z,42.51
2023-08-09T13:54:06.049Z,42.34
2023-08-09T13:59:09.126Z,43.01
2023-08-09T14:04:12.552Z,42.65
2023-08-09T14:09:15.787Z,42.63
2023-08-09T14:14:19.030Z,42.25
2023-08-09T14:19:22.481Z,41.97
2023-08-09T14:24:25.559Z,41.34
2023-08-09T14:29:29.620Z,41.14
2023-08-09T14:34:32.648Z,41.40
2023-08-09T14:39:39.908Z,40.59
2023-08-09T14:44:45.580Z,39.69
2023-08-09T14:49:48.606Z,39.23
2023-08-09T14:54:52.907Z,40.02
2023-08-09T14:59:56.059Z,39.24
2023-08-09T15:04:59.111Z,39.56
2023-08-09T15:10:02.143Z,38.53
2023-08-09T15:15:08.230Z,38.35
2023-08-09T15:20:14.352Z,38.58
2023-08-09T15:25:21.855Z,38.87
2023-08-09T15:30:25.692Z,39.03
2023-08-09T15:35:29.326Z,38.96
2023-08-09T15:40:32.406Z,38.90
2023-08-09T15:45:38.772Z,40.04
2023-08-09T15:50:42.780Z,40.60
2023-08-09T15:55:46.003Z,40.92
2023-08-09T16:00:55.304Z,41.40
2023-08-09T16:05:59.160Z,41.85
2023-08-09T16:11:02.206Z,42.23
2023-08-09T16:16:06.268Z,43.16
2023-08-09T16:21:11.844Z,43.70
2023-08-09T16:26:15.296Z,43.57
2023-08-09T16:31:18.395Z,44.36
2023-08-09T16:36:21.384Z,43.69
2023-08-09T16:41:24.426Z,44.23
2023-08-09T16:46:27.574Z,44.31
2023-08-09T16:51:30.783Z,43.70
2023-08-09T16:56:35.444Z,43.59
2023-08-09T17:01:38.710Z,42.76
2023-08-09T17:06:41.996Z,43.37
2023-08-09T17:11:47.632Z,43.51
2023-08-09T17:16:51.390Z,44.16
2023-08-09T17:21:55.234Z,44.49
2023-08-09T17:26:58.384Z,44.50
2023-08-09T17:32:02.073Z,43.69
2023-08-09T17:37:06.488Z,44.40
2023-08-09T17:42:09.541Z,44.32
2023-08-09T17:47:14.951Z,43.57
2023-08-09T17:52:18.476Z,44.69
2023-08-09T17:57:21.575Z,44.24
2023-08-09T18:02:24.783Z,44.18
2023-08-09T18:07:27.982Z,44.17
2023-08-09T18:12:31.162Z,43.62
2023-08-09T18:17:35.903Z,44.47
2023-08-09T18:22:40.681Z,44.26
2023-08-09T18:27:43.823Z,44.90
2023-08-09T18:32:47.124Z,45.70
2023-08-09T18:37:50.582Z,44.80
2023-08-09T18:42:53.675Z,45.01
2023-08-09T18:47:56.786Z,45.01
2023-08-09T18:53:00.921Z,45.06
2023-08-09T18:58:04.283Z,45.33
2023-08-09T19:03:08.125Z,45.81
2023-08-09T19:08:11.421Z,45.45
2023-08-09T19:13:14.495Z,45.73
2023-08-09T19:18:17.561Z,45.16
2023-08-09T19:23:20.682Z,45.04
2023-08-09T19:28:24.209Z,44.79
2023-08-09T19:33:32.719Z,44.96
2023-08-09T19:38:36.222Z,45.60
2023-08-09T19:43:39.290Z,45.36
2023-08-09T19:48:44.078Z,46.26
2023-08-09T19:53:47.492Z,46.67
2023-08-09T19:58:50.488Z,46.64
2023-08-09T20:03:53.625Z,47.18
2023-08-09T20:08:56.719Z,48.26
2023-08-09T20:13:59.982Z,48.40
2023-08-09T20:19:03.313Z,48.94
2023-08-09T20:24:16.396Z,49.17
2023-08-09T20:29:20.100Z,48.99
2023-08-09T20:34:23.787Z,48.37
2023-08-09T20:39:27.932Z,46.94
2023-08-09T20:44:36.732Z,47.47
2023-08-09T20:49:40.246Z,47.42
2023-08-09T20:54:43.320Z,47.72
2023-08-09T20:59:47.370Z,47.89
2023-08-09T21:04:50.461Z,48.37
2023-08-09T21:09:53.597Z,49.06
2023-08-09T21:14:56.780Z,49.20
2023-08-09T21:19:59.812Z,49.38
2023-08-09T21:30:09.392Z,50.18
2023-08-09T21:35:12.600Z,50.01
2023-08-09T21:40:15.607Z,49.25
2023-08-09T21:45:18.903Z,46.29
2023-08-09T21:50:23.111Z,43.61
2023-08-09T21:55:26.216Z,43.27
2023-08-09T22:00:29.307Z,42.67
2023-08-09T22:05:32.397Z,42.53
2023-08-09T22:10:39.769Z,42.39
2023-08-09T22:15:43.108Z,42.97
2023-08-09T22:20:47.955Z,43.07
2023-08-09T22:25:51.064Z,43.51
2023-08-09T22:30:54.184Z,43.51
2023-08-09T22:35:57.409Z,43.92
2023-08-09T22:41:00.427Z,44.76
2023-08-09T22:46:03.631Z,44.96
2023-08-09T22:51:06.745Z,45.55
2023-08-09T22:56:09.747Z,46.03
2023-08-09T23:01:12.923Z,46.53
2023-08-09T23:06:16.042Z,46.93
2023-08-09T23:11:19.172Z,47.60
2023-08-09T23:16:22.191Z,47.80
2023-08-09T23:21:28.255Z,47.91
2023-08-09T23:26:31.331Z,48.08
2023-08-09T23:31:34.442Z,48.07
2023-08-09T23:36:37.534Z,47.41
2023-08-09T23:41:40.670Z,45.87
2023-08-09T23:46:43.958Z,44.59
2023-08-09T23:51:47.095Z,42.76
2023-08-09T23:56:50.233Z,41.60
